CMP237 MROC-MPTO
Flight info
| Callsign | CMP237 |
|---|---|
| Flight time | 0h 51m |
| Altitude | 33000 |
| Route | TEJAR3M LIO UA317 BUFEO DCT BITOR VALIS1 |
| Aircraft | B737/M-SDE2E3FGHIRWXY/LB1 |
Departure
| Time | 2026-04-28 07:03 |
|---|---|
| Airport | Juan Santamaría International Airport (MROC) |
Arrival
| Time | 2026-04-28 07:55 |
|---|---|
| Airport | Tocumen International Airport (MPTO) |
| Time | Latitude | Longitude | Altitude | Speed | Heading |
|---|---|---|---|---|---|
| 2026-04-28 06:40 | 9.99781 | -84.20276 | 3033 ft | 0 kts | 339° |
| 2026-04-28 06:48 | 9.99777 | -84.20274 | 3033 ft | 3 kts | 339° |
| 2026-04-28 06:49 | 9.99758 | -84.20267 | 3035 ft | 3 kts | 338° |
| 2026-04-28 06:49 | 9.99742 | -84.20259 | 3032 ft | 2 kts | 330° |
| 2026-04-28 06:49 | 9.99733 | -84.20253 | 3033 ft | 1 kts | 307° |
| 2026-04-28 06:49 | 9.99729 | -84.20246 | 3034 ft | 1 kts | 270° |
| 2026-04-28 06:50 | 9.99730 | -84.20237 | 3033 ft | 1 kts | 254° |
| 2026-04-28 06:50 | 9.99732 | -84.20229 | 3033 ft | 1 kts | 250° |
| 2026-04-28 06:50 | 9.99733 | -84.20227 | 3033 ft | 0 kts | 250° |
| 2026-04-28 06:54 | 9.99732 | -84.20229 | 3033 ft | 2 kts | 250° |
| 2026-04-28 06:55 | 9.99712 | -84.20284 | 3033 ft | 11 kts | 249° |
| 2026-04-28 06:55 | 9.99683 | -84.20359 | 3033 ft | 11 kts | 249° |
| 2026-04-28 06:55 | 9.99656 | -84.20433 | 3033 ft | 11 kts | 249° |
| 2026-04-28 06:55 | 9.99630 | -84.20504 | 3033 ft | 11 kts | 251° |
| 2026-04-28 06:56 | 9.99602 | -84.20577 | 3033 ft | 11 kts | 249° |
| 2026-04-28 06:56 | 9.99573 | -84.20655 | 3035 ft | 12 kts | 249° |
| 2026-04-28 06:56 | 9.99544 | -84.20733 | 3033 ft | 12 kts | 249° |
| 2026-04-28 06:56 | 9.99514 | -84.20815 | 3034 ft | 13 kts | 249° |
| 2026-04-28 06:57 | 9.99481 | -84.20902 | 3030 ft | 15 kts | 249° |
| 2026-04-28 06:57 | 9.99434 | -84.21027 | 3020 ft | 23 kts | 249° |
| 2026-04-28 06:57 | 9.99370 | -84.21198 | 3003 ft | 27 kts | 249° |
| 2026-04-28 06:57 | 9.99305 | -84.21371 | 2992 ft | 26 kts | 250° |
| 2026-04-28 06:58 | 9.99237 | -84.21552 | 2977 ft | 29 kts | 249° |
| 2026-04-28 06:58 | 9.99182 | -84.21699 | 2969 ft | 21 kts | 249° |
| 2026-04-28 06:58 | 9.99130 | -84.21838 | 2955 ft | 21 kts | 249° |
| 2026-04-28 06:58 | 9.99096 | -84.21972 | 2952 ft | 19 kts | 277° |
| 2026-04-28 06:59 | 9.99094 | -84.22098 | 2951 ft | 16 kts | 249° |
| 2026-04-28 06:59 | 9.99062 | -84.22179 | 2942 ft | 11 kts | 240° |
| 2026-04-28 06:59 | 9.99017 | -84.22206 | 2944 ft | 2 kts | 178° |
| 2026-04-28 06:59 | 9.99015 | -84.22205 | 2944 ft | 0 kts | 173° |
| 2026-04-28 07:02 | 9.98978 | -84.22193 | 2944 ft | 11 kts | 158° |
| 2026-04-28 07:02 | 9.98919 | -84.22164 | 2937 ft | 8 kts | 120° |
| 2026-04-28 07:02 | 9.98938 | -84.22111 | 2938 ft | 8 kts | 58° |
| 2026-04-28 07:02 | 9.99006 | -84.21927 | 2948 ft | 63 kts | 71° |
| 2026-04-28 07:03 | 9.99250 | -84.21256 | 2992 ft | 138 kts | 69° |
| 2026-04-28 07:03 | 9.99648 | -84.20174 | 3242 ft | 184 kts | 69° |
| 2026-04-28 07:03 | 10.00079 | -84.18892 | 4126 ft | 197 kts | 70° |
| 2026-04-28 07:03 | 10.00565 | -84.17520 | 4855 ft | 210 kts | 69° |
| 2026-04-28 07:04 | 10.01097 | -84.16119 | 5733 ft | 214 kts | 68° |
| 2026-04-28 07:04 | 10.01640 | -84.14701 | 6588 ft | 217 kts | 69° |
| 2026-04-28 07:04 | 10.02103 | -84.13238 | 7376 ft | 220 kts | 84° |
| 2026-04-28 07:04 | 10.01875 | -84.11710 | 8220 ft | 223 kts | 111° |
| 2026-04-28 07:05 | 10.01021 | -84.10398 | 9057 ft | 231 kts | 134° |
| 2026-04-28 07:05 | 9.99787 | -84.09324 | 9961 ft | 236 kts | 140° |
| 2026-04-28 07:05 | 9.98456 | -84.08284 | 10691 ft | 249 kts | 141° |
| 2026-04-28 07:05 | 9.97044 | -84.07184 | 11314 ft | 263 kts | 141° |
| 2026-04-28 07:06 | 9.95560 | -84.06014 | 11934 ft | 277 kts | 141° |
| 2026-04-28 07:06 | 9.94005 | -84.04775 | 12575 ft | 291 kts | 141° |
| 2026-04-28 07:06 | 9.92401 | -84.03492 | 13204 ft | 302 kts | 141° |
| 2026-04-28 07:06 | 9.90717 | -84.02145 | 13853 ft | 314 kts | 141° |
| 2026-04-28 07:07 | 9.88965 | -84.00751 | 14435 ft | 325 kts | 141° |
| 2026-04-28 07:07 | 9.87160 | -83.99316 | 15015 ft | 334 kts | 141° |
| 2026-04-28 07:07 | 9.85321 | -83.97854 | 15590 ft | 335 kts | 141° |
| 2026-04-28 07:07 | 9.83598 | -83.96263 | 16152 ft | 337 kts | 127° |
| 2026-04-28 07:08 | 9.82543 | -83.94157 | 16764 ft | 337 kts | 105° |
| 2026-04-28 07:08 | 9.82298 | -83.91824 | 17377 ft | 338 kts | 87° |
| 2026-04-28 07:08 | 9.82465 | -83.89434 | 18025 ft | 341 kts | 85° |
| 2026-04-28 07:08 | 9.82693 | -83.87023 | 18623 ft | 347 kts | 84° |
| 2026-04-28 07:09 | 9.82922 | -83.84561 | 19188 ft | 354 kts | 85° |
| 2026-04-28 07:09 | 9.83135 | -83.82048 | 19764 ft | 361 kts | 86° |
| 2026-04-28 07:09 | 9.83338 | -83.79480 | 20356 ft | 367 kts | 86° |
| 2026-04-28 07:09 | 9.83539 | -83.76872 | 20946 ft | 373 kts | 86° |
| 2026-04-28 07:10 | 9.83724 | -83.74265 | 21545 ft | 378 kts | 87° |
| 2026-04-28 07:10 | 9.83907 | -83.71589 | 22162 ft | 382 kts | 87° |
| 2026-04-28 07:10 | 9.84091 | -83.68883 | 22793 ft | 387 kts | 87° |
| 2026-04-28 07:10 | 9.84279 | -83.66150 | 23435 ft | 390 kts | 87° |
| 2026-04-28 07:11 | 9.84469 | -83.63393 | 24000 ft | 393 kts | 87° |
| 2026-04-28 07:11 | 9.84668 | -83.60616 | 24543 ft | 396 kts | 86° |
| 2026-04-28 07:11 | 9.85056 | -83.57835 | 25104 ft | 400 kts | 81° |
| 2026-04-28 07:11 | 9.85607 | -83.55060 | 25665 ft | 402 kts | 79° |
| 2026-04-28 07:12 | 9.86214 | -83.52278 | 26246 ft | 405 kts | 79° |
| 2026-04-28 07:12 | 9.86584 | -83.49486 | 26808 ft | 404 kts | 91° |
| 2026-04-28 07:12 | 9.86509 | -83.46640 | 27429 ft | 404 kts | 95° |
| 2026-04-28 07:12 | 9.86345 | -83.43796 | 28037 ft | 405 kts | 96° |
| 2026-04-28 07:13 | 9.86160 | -83.40940 | 28658 ft | 406 kts | 96° |
| 2026-04-28 07:13 | 9.85977 | -83.38076 | 29298 ft | 406 kts | 96° |
| 2026-04-28 07:13 | 9.85803 | -83.35218 | 29951 ft | 406 kts | 96° |
| 2026-04-28 07:13 | 9.85639 | -83.32348 | 30532 ft | 406 kts | 96° |
| 2026-04-28 07:14 | 9.85481 | -83.29483 | 31078 ft | 406 kts | 96° |
| 2026-04-28 07:14 | 9.85330 | -83.26633 | 31650 ft | 404 kts | 96° |
| 2026-04-28 07:14 | 9.85181 | -83.23797 | 32253 ft | 402 kts | 96° |
| 2026-04-28 07:14 | 9.85034 | -83.21009 | 32819 ft | 400 kts | 96° |
| 2026-04-28 07:15 | 9.84883 | -83.18171 | 32984 ft | 410 kts | 96° |
| 2026-04-28 07:15 | 9.84725 | -83.15235 | 33007 ft | 421 kts | 96° |
| 2026-04-28 07:15 | 9.84563 | -83.12224 | 32993 ft | 433 kts | 96° |
| 2026-04-28 07:15 | 9.84397 | -83.09133 | 33006 ft | 444 kts | 96° |
| 2026-04-28 07:16 | 9.84229 | -83.05967 | 32987 ft | 454 kts | 95° |
| 2026-04-28 07:16 | 9.83887 | -82.99506 | 32966 ft | 458 kts | 95° |
| 2026-04-28 07:17 | 9.83548 | -82.93101 | 32954 ft | 456 kts | 95° |
| 2026-04-28 07:17 | 9.83204 | -82.86669 | 32941 ft | 454 kts | 96° |
| 2026-04-28 07:18 | 9.82862 | -82.80324 | 32942 ft | 452 kts | 96° |
| 2026-04-28 07:18 | 9.82518 | -82.73964 | 32944 ft | 451 kts | 96° |
| 2026-04-28 07:19 | 9.82172 | -82.67604 | 32948 ft | 450 kts | 96° |
| 2026-04-28 07:19 | 9.81827 | -82.61252 | 32947 ft | 451 kts | 96° |
| 2026-04-28 07:20 | 9.80980 | -82.55021 | 32935 ft | 446 kts | 111° |
| 2026-04-28 07:20 | 9.78946 | -82.49088 | 32938 ft | 445 kts | 113° |
| 2026-04-28 07:21 | 9.76823 | -82.43184 | 32939 ft | 445 kts | 113° |
| 2026-04-28 07:21 | 9.74743 | -82.37300 | 32934 ft | 446 kts | 113° |
| 2026-04-28 07:22 | 9.71646 | -82.28399 | 32930 ft | 445 kts | 112° |
| 2026-04-28 07:22 | 9.69604 | -82.22509 | 32932 ft | 445 kts | 113° |
| 2026-04-28 07:23 | 9.67542 | -82.16569 | 32929 ft | 444 kts | 113° |
| 2026-04-28 07:23 | 9.65498 | -82.10688 | 32933 ft | 443 kts | 113° |
| 2026-04-28 07:24 | 9.63449 | -82.04795 | 32935 ft | 443 kts | 113° |
| 2026-04-28 07:24 | 9.61411 | -81.98939 | 32928 ft | 442 kts | 113° |
| 2026-04-28 07:25 | 9.59363 | -81.93057 | 32930 ft | 442 kts | 113° |
| 2026-04-28 07:25 | 9.57310 | -81.87165 | 32927 ft | 442 kts | 113° |
| 2026-04-28 07:26 | 9.55262 | -81.81292 | 32931 ft | 442 kts | 113° |
| 2026-04-28 07:26 | 9.53219 | -81.75435 | 32928 ft | 442 kts | 113° |
| 2026-04-28 07:27 | 9.51164 | -81.69548 | 32931 ft | 443 kts | 113° |
| 2026-04-28 07:27 | 9.49107 | -81.63658 | 32931 ft | 443 kts | 113° |
| 2026-04-28 07:28 | 9.47051 | -81.57774 | 32927 ft | 443 kts | 113° |
| 2026-04-28 07:28 | 9.44995 | -81.51897 | 32950 ft | 451 kts | 113° |
| 2026-04-28 07:29 | 9.42849 | -81.45778 | 32940 ft | 468 kts | 113° |
| 2026-04-28 07:29 | 9.40651 | -81.39502 | 32930 ft | 482 kts | 112° |
| 2026-04-28 07:30 | 9.38385 | -81.33026 | 32924 ft | 492 kts | 112° |
| 2026-04-28 07:30 | 9.36097 | -81.26489 | 32914 ft | 492 kts | 112° |
| 2026-04-28 07:31 | 9.34196 | -81.21065 | 32917 ft | 491 kts | 112° |
| 2026-04-28 07:31 | 9.31537 | -81.13487 | 32912 ft | 490 kts | 112° |
| 2026-04-28 07:32 | 9.29635 | -81.08072 | 32915 ft | 490 kts | 112° |
| 2026-04-28 07:32 | 9.27352 | -81.01569 | 32921 ft | 489 kts | 112° |
| 2026-04-28 07:33 | 9.26547 | -80.98214 | 32895 ft | 494 kts | 98° |
| 2026-04-28 07:33 | 9.26299 | -80.94733 | 32731 ft | 496 kts | 95° |
| 2026-04-28 07:33 | 9.26181 | -80.91284 | 32505 ft | 484 kts | 94° |
| 2026-04-28 07:33 | 9.26105 | -80.87909 | 32276 ft | 474 kts | 94° |
| 2026-04-28 07:34 | 9.26024 | -80.84610 | 31681 ft | 474 kts | 94° |
| 2026-04-28 07:34 | 9.25919 | -80.81271 | 31031 ft | 472 kts | 94° |
| 2026-04-28 07:34 | 9.25793 | -80.77956 | 30384 ft | 469 kts | 95° |
| 2026-04-28 07:34 | 9.25652 | -80.74667 | 29721 ft | 466 kts | 95° |
| 2026-04-28 07:35 | 9.25503 | -80.71396 | 28979 ft | 463 kts | 95° |
| 2026-04-28 07:35 | 9.25351 | -80.68146 | 28274 ft | 459 kts | 95° |
| 2026-04-28 07:35 | 9.25198 | -80.64923 | 27575 ft | 455 kts | 94° |
| 2026-04-28 07:35 | 9.25050 | -80.61781 | 26904 ft | 451 kts | 94° |
| 2026-04-28 07:36 | 9.24902 | -80.58613 | 26232 ft | 447 kts | 94° |
| 2026-04-28 07:36 | 9.24755 | -80.55480 | 25585 ft | 443 kts | 94° |
| 2026-04-28 07:36 | 9.24610 | -80.52371 | 24950 ft | 439 kts | 94° |
| 2026-04-28 07:36 | 9.24468 | -80.49335 | 24338 ft | 435 kts | 94° |
| 2026-04-28 07:37 | 9.24325 | -80.46285 | 23727 ft | 431 kts | 93° |
| 2026-04-28 07:37 | 9.24183 | -80.43272 | 23052 ft | 427 kts | 93° |
| 2026-04-28 07:37 | 9.24043 | -80.40289 | 22345 ft | 422 kts | 93° |
| 2026-04-28 07:37 | 9.23904 | -80.37327 | 21648 ft | 418 kts | 93° |
| 2026-04-28 07:38 | 9.23766 | -80.34389 | 20969 ft | 414 kts | 93° |
| 2026-04-28 07:38 | 9.23630 | -80.31522 | 20313 ft | 410 kts | 93° |
| 2026-04-28 07:38 | 9.23495 | -80.28655 | 19666 ft | 406 kts | 92° |
| 2026-04-28 07:38 | 9.23360 | -80.25806 | 19030 ft | 402 kts | 92° |
| 2026-04-28 07:39 | 9.23226 | -80.22983 | 18408 ft | 398 kts | 92° |
| 2026-04-28 07:39 | 9.23093 | -80.20194 | 17723 ft | 394 kts | 92° |
| 2026-04-28 07:39 | 9.22962 | -80.17428 | 17022 ft | 391 kts | 92° |
| 2026-04-28 07:39 | 9.22831 | -80.14687 | 16338 ft | 387 kts | 92° |
| 2026-04-28 07:40 | 9.22704 | -80.12011 | 15678 ft | 384 kts | 92° |
| 2026-04-28 07:40 | 9.22575 | -80.09320 | 15024 ft | 381 kts | 92° |
| 2026-04-28 07:40 | 9.22447 | -80.06651 | 14382 ft | 378 kts | 93° |
| 2026-04-28 07:40 | 9.22320 | -80.04000 | 13750 ft | 376 kts | 93° |
| 2026-04-28 07:41 | 9.22193 | -80.01354 | 13050 ft | 373 kts | 93° |
| 2026-04-28 07:41 | 9.22067 | -79.98741 | 12360 ft | 370 kts | 93° |
| 2026-04-28 07:41 | 9.21944 | -79.96178 | 11692 ft | 367 kts | 93° |
| 2026-04-28 07:41 | 9.21820 | -79.93607 | 11027 ft | 364 kts | 92° |
| 2026-04-28 07:42 | 9.21697 | -79.91059 | 10377 ft | 360 kts | 92° |
| 2026-04-28 07:42 | 9.21480 | -79.88544 | 9714 ft | 358 kts | 102° |
| 2026-04-28 07:42 | 9.20505 | -79.86239 | 9010 ft | 356 kts | 123° |
| 2026-04-28 07:42 | 9.18846 | -79.84406 | 8382 ft | 353 kts | 142° |
| 2026-04-28 07:43 | 9.16814 | -79.83106 | 8167 ft | 337 kts | 149° |
| 2026-04-28 07:43 | 9.14849 | -79.81984 | 8027 ft | 320 kts | 149° |
| 2026-04-28 07:43 | 9.12952 | -79.80899 | 7935 ft | 304 kts | 149° |
| 2026-04-28 07:43 | 9.11170 | -79.79861 | 7917 ft | 289 kts | 148° |
| 2026-04-28 07:44 | 9.09438 | -79.78841 | 7921 ft | 286 kts | 148° |
| 2026-04-28 07:44 | 9.07737 | -79.77810 | 7919 ft | 285 kts | 145° |
| 2026-04-28 07:44 | 9.06109 | -79.76652 | 7938 ft | 286 kts | 142° |
| 2026-04-28 07:44 | 9.04505 | -79.75441 | 7781 ft | 291 kts | 142° |
| 2026-04-28 07:45 | 9.02876 | -79.74202 | 7436 ft | 292 kts | 141° |
| 2026-04-28 07:45 | 9.01261 | -79.72980 | 7099 ft | 288 kts | 142° |
| 2026-04-28 07:45 | 8.99678 | -79.71788 | 6776 ft | 285 kts | 142° |
| 2026-04-28 07:45 | 8.98532 | -79.70928 | 6534 ft | 283 kts | 142° |
| 2026-04-28 07:46 | 8.96957 | -79.69751 | 6210 ft | 280 kts | 142° |
| 2026-04-28 07:46 | 8.95394 | -79.68577 | 5868 ft | 278 kts | 141° |
| 2026-04-28 07:46 | 8.93862 | -79.67424 | 5520 ft | 276 kts | 141° |
| 2026-04-28 07:46 | 8.92328 | -79.66265 | 5185 ft | 273 kts | 141° |
| 2026-04-28 07:47 | 8.90811 | -79.65114 | 4854 ft | 272 kts | 141° |
| 2026-04-28 07:47 | 8.89307 | -79.63966 | 4498 ft | 270 kts | 141° |
| 2026-04-28 07:47 | 8.87813 | -79.62826 | 4164 ft | 265 kts | 139° |
| 2026-04-28 07:47 | 8.86774 | -79.61368 | 3758 ft | 253 kts | 104° |
| 2026-04-28 07:48 | 8.86826 | -79.59673 | 3483 ft | 237 kts | 65° |
| 2026-04-28 07:48 | 8.87740 | -79.58376 | 3291 ft | 227 kts | 49° |
| 2026-04-28 07:48 | 8.88608 | -79.57047 | 3038 ft | 226 kts | 63° |
| 2026-04-28 07:48 | 8.89143 | -79.55570 | 2831 ft | 220 kts | 74° |
| 2026-04-28 07:49 | 8.89444 | -79.54076 | 2583 ft | 212 kts | 79° |
| 2026-04-28 07:49 | 8.89621 | -79.52622 | 2341 ft | 203 kts | 82° |
| 2026-04-28 07:49 | 8.89740 | -79.51253 | 2150 ft | 192 kts | 84° |
| 2026-04-28 07:49 | 8.89831 | -79.49969 | 2129 ft | 174 kts | 84° |
| 2026-04-28 07:50 | 8.89951 | -79.48812 | 2115 ft | 162 kts | 71° |
| 2026-04-28 07:50 | 8.90478 | -79.47826 | 2135 ft | 161 kts | 44° |
| 2026-04-28 07:50 | 8.91386 | -79.47171 | 2169 ft | 160 kts | 34° |
| 2026-04-28 07:50 | 8.92289 | -79.46500 | 2147 ft | 160 kts | 36° |
| 2026-04-28 07:51 | 8.93218 | -79.45872 | 2137 ft | 160 kts | 31° |
| 2026-04-28 07:51 | 8.94164 | -79.45303 | 2126 ft | 159 kts | 29° |
| 2026-04-28 07:51 | 8.95120 | -79.44751 | 2120 ft | 159 kts | 28° |
| 2026-04-28 07:51 | 8.96082 | -79.44202 | 1996 ft | 156 kts | 29° |
| 2026-04-28 07:52 | 8.97043 | -79.43655 | 1771 ft | 159 kts | 28° |
| 2026-04-28 07:52 | 8.98008 | -79.43106 | 1554 ft | 158 kts | 28° |
| 2026-04-28 07:52 | 8.98962 | -79.42594 | 1342 ft | 156 kts | 7° |
| 2026-04-28 07:52 | 8.99971 | -79.42877 | 912 ft | 164 kts | 324° |
| 2026-04-28 07:53 | 9.01096 | -79.43042 | 1244 ft | 170 kts | 23° |
| 2026-04-28 07:53 | 9.01810 | -79.42122 | 1321 ft | 163 kts | 61° |
| 2026-04-28 07:53 | 9.02311 | -79.41167 | 1105 ft | 148 kts | 58° |
| 2026-04-28 07:53 | 9.02970 | -79.40380 | 661 ft | 147 kts | 40° |
| 2026-04-28 07:54 | 9.03798 | -79.39827 | 298 ft | 141 kts | 30° |
| 2026-04-28 07:54 | 9.04635 | -79.39337 | 88 ft | 136 kts | 29° |
| 2026-04-28 07:54 | 9.05416 | -79.38899 | 30 ft | 113 kts | 27° |
| 2026-04-28 07:54 | 9.05973 | -79.38581 | 31 ft | 70 kts | 32° |
| 2026-04-28 07:55 | 9.06229 | -79.38427 | 30 ft | 17 kts | 29° |
| 2026-04-28 07:55 | 9.06325 | -79.38378 | 29 ft | 15 kts | 12° |
| 2026-04-28 07:55 | 9.06404 | -79.38376 | 29 ft | 0 kts | 358° |
| 2026-04-28 07:55 | 9.06405 | -79.38376 | 29 ft | 0 kts | 358° |
| 2026-04-28 07:56 | 9.06441 | -79.38377 | 29 ft | 10 kts | 358° |
| 2026-04-28 07:56 | 9.06506 | -79.38379 | 29 ft | 0 kts | 358° |
| 2026-04-28 08:00 | 9.06522 | -79.38380 | 29 ft | 5 kts | 355° |
| 2026-04-28 08:00 | 9.06571 | -79.38387 | 29 ft | 9 kts | 3° |
| 2026-04-28 08:00 | 9.06610 | -79.38383 | 29 ft | 2 kts | 4° |
| 2026-04-28 08:00 | 9.06619 | -79.38383 | 29 ft | 2 kts | 0° |
| 2026-04-28 08:01 | 9.06633 | -79.38389 | 29 ft | 2 kts | 328° |
| 2026-04-28 08:01 | 9.06645 | -79.38405 | 29 ft | 4 kts | 302° |
| 2026-04-28 08:01 | 9.06664 | -79.38438 | 29 ft | 7 kts | 288° |
| 2026-04-28 08:01 | 9.06666 | -79.38490 | 29 ft | 8 kts | 301° |
| 2026-04-28 08:02 | 9.06693 | -79.38530 | 29 ft | 3 kts | 303° |
| 2026-04-28 08:02 | 9.06705 | -79.38550 | 29 ft | 3 kts | 298° |
| 2026-04-28 08:02 | 9.06710 | -79.38559 | 29 ft | 0 kts | 300° |